createdAt,value
2018-12-13T00:02:27.521Z,54.40
2018-12-13T00:05:03.663Z,51.97
2018-12-13T00:07:35.909Z,49.47
2018-12-13T00:10:11.888Z,48.80
2018-12-13T00:12:44.156Z,49.53
2018-12-13T00:15:23.801Z,48.67
2018-12-13T00:17:59.701Z,46.07
2018-12-13T00:20:35.677Z,45.70
2018-12-13T00:23:11.820Z,43.10
2018-12-13T00:25:48.064Z,45.27
2018-12-13T00:28:24.226Z,45.10
2018-12-13T00:30:56.488Z,45.97
2018-12-13T00:33:28.905Z,43.37
2018-12-13T00:36:04.839Z,44.00
2018-12-13T00:38:40.834Z,42.43
2018-12-13T00:41:16.929Z,42.27
2018-12-13T00:43:53.196Z,41.13
2018-12-13T00:46:29.401Z,41.37
2018-12-13T00:49:05.398Z,39.07
2018-12-13T00:51:37.970Z,39.43
2018-12-13T00:54:14.178Z,40.43
2018-12-13T00:56:50.276Z,43.90
2018-12-13T00:59:26.412Z,45.20
2018-12-13T01:24:57.669Z,37.73
2018-12-13T01:27:33.912Z,37.30
2018-12-13T01:30:10.140Z,38.53
2018-12-13T01:32:46.208Z,39.47
2018-12-13T01:35:22.244Z,39.43
2018-12-13T01:37:58.244Z,37.13
2018-12-13T01:40:34.417Z,36.60
2018-12-13T01:43:10.552Z,38.13
2018-12-13T01:45:42.860Z,33.87
2018-12-13T01:48:19.053Z,36.47
2018-12-13T01:50:55.185Z,32.50
2018-12-13T01:53:31.282Z,34.50
2018-12-13T01:56:03.656Z,32.40
2018-12-13T01:58:39.772Z,32.47
2018-12-13T02:01:16.000Z,32.77
2018-12-13T02:03:52.017Z,32.13
2018-12-13T02:06:28.238Z,32.53
2018-12-13T02:09:06.437Z,31.00
2018-12-13T02:11:38.775Z,30.97
2018-12-13T02:14:11.008Z,31.27
2018-12-13T02:16:47.145Z,31.37
2018-12-13T02:19:23.250Z,29.70
2018-12-13T02:21:59.385Z,31.10
2018-12-13T02:24:35.496Z,32.47
2018-12-13T02:27:11.652Z,33.27
2018-12-13T02:40:01.329Z,32.27
2018-12-13T02:42:37.356Z,34.87
2018-12-13T02:45:09.705Z,35.20
2018-12-13T02:47:45.706Z,35.80
2018-12-13T02:50:21.860Z,34.73
2018-12-13T02:52:58.059Z,35.47
2018-12-13T02:55:34.122Z,35.30
2018-12-13T02:58:10.014Z,34.07
2018-12-13T03:00:42.317Z,35.97
2018-12-13T03:03:18.408Z,36.10
2018-12-13T03:05:54.497Z,33.47
2018-12-13T03:08:30.636Z,32.97
2018-12-13T03:11:06.692Z,34.87
2018-12-13T03:13:42.886Z,33.50
2018-12-13T03:16:18.883Z,32.33
2018-12-13T03:18:55.095Z,33.33
2018-12-13T03:21:31.180Z,37.13
2018-12-13T03:24:07.400Z,37.73
2018-12-13T03:26:39.785Z,36.73
2018-12-13T03:29:11.988Z,37.07
2018-12-13T03:31:44.387Z,35.97
2018-12-13T03:34:20.459Z,35.93
2018-12-13T03:36:56.721Z,38.33
2018-12-13T03:39:32.760Z,41.30
2018-12-13T03:42:08.956Z,38.27
2018-12-13T03:44:44.744Z,42.77
2018-12-13T03:47:20.777Z,41.27
2018-12-13T03:49:56.836Z,41.20
2018-12-13T03:52:32.974Z,40.97
2018-12-13T03:55:09.129Z,42.27
2018-12-13T03:57:45.077Z,43.20
2018-12-13T04:00:21.053Z,39.50
2018-12-13T04:02:57.191Z,41.57
2018-12-13T04:05:33.296Z,41.17
2018-12-13T04:08:05.656Z,42.80
2018-12-13T04:10:41.617Z,43.03
2018-12-13T04:13:13.948Z,41.20
2018-12-13T04:15:50.055Z,43.30
2018-12-13T04:18:26.233Z,39.47
2018-12-13T04:20:58.416Z,41.17
2018-12-13T04:23:34.448Z,41.43
2018-12-13T04:26:10.634Z,41.17
2018-12-13T04:28:46.707Z,41.17
2018-12-13T04:31:22.945Z,43.73
2018-12-13T04:33:59.073Z,42.60
2018-12-13T04:36:34.982Z,42.87
2018-12-13T04:39:11.120Z,41.93
2018-12-13T04:41:47.235Z,42.60
2018-12-13T04:44:19.519Z,43.67
2018-12-13T04:46:55.109Z,42.20
2018-12-13T04:49:31.285Z,43.20
2018-12-13T04:52:07.381Z,44.30
2018-12-13T04:54:43.494Z,43.27
2018-12-13T04:57:19.510Z,44.40
2018-12-13T04:59:51.768Z,44.97
2018-12-13T05:02:27.772Z,45.27
2018-12-13T05:05:04.056Z,45.30
2018-12-13T05:07:41.898Z,43.27
2018-12-13T05:10:25.540Z,44.37
2018-12-13T05:12:58.057Z,45.37
2018-12-13T05:15:30.578Z,45.23
2018-12-13T05:18:06.701Z,45.83
2018-12-13T05:20:42.865Z,47.83
2018-12-13T05:23:15.136Z,45.87
2018-12-13T05:25:47.532Z,46.57
2018-12-13T05:28:23.608Z,44.50
2018-12-13T05:30:59.776Z,45.43
2018-12-13T05:33:35.968Z,47.93
2018-12-13T05:36:12.133Z,47.20
2018-12-13T05:38:48.023Z,46.23
2018-12-13T05:41:24.108Z,47.40
2018-12-13T05:44:00.324Z,46.03
2018-12-13T05:46:32.681Z,45.53
2018-12-13T06:12:08.861Z,49.60
2018-12-13T06:14:44.857Z,45.50
2018-12-13T06:17:20.811Z,48.13
2018-12-13T06:32:43.305Z,50.10
2018-12-13T06:35:20.435Z,46.67
2018-12-13T06:38:01.202Z,44.07
2018-12-13T06:40:31.101Z,46.83
2018-12-13T06:43:07.190Z,47.60
2018-12-13T06:45:43.195Z,48.17
2018-12-13T06:48:19.307Z,49.60
2018-12-13T06:50:55.439Z,52.53
2018-12-13T06:53:31.479Z,49.80
2018-12-13T06:56:07.709Z,49.43
2018-12-13T06:58:43.649Z,50.90
2018-12-13T07:01:19.924Z,51.77
2018-12-13T07:03:56.160Z,49.47
2018-12-13T07:06:32.119Z,48.73
2018-12-13T07:09:08.033Z,50.17
2018-12-13T07:11:40.432Z,49.57
2018-12-13T07:14:16.508Z,53.17
2018-12-13T07:16:48.826Z,52.60
2018-12-13T07:19:25.027Z,49.83
2018-12-13T07:21:57.441Z,52.10
2018-12-13T07:24:33.273Z,50.50
2018-12-13T07:27:09.400Z,52.87
2018-12-13T07:29:41.684Z,52.43
2018-12-13T07:32:13.889Z,52.83
2018-12-13T07:34:50.041Z,51.67
2018-12-13T07:37:26.308Z,52.97
2018-12-13T07:39:58.529Z,51.27
2018-12-13T07:42:34.632Z,51.00
2018-12-13T07:45:10.760Z,53.83
2018-12-13T07:47:43.003Z,51.73
2018-12-13T07:50:19.092Z,50.20
2018-12-13T07:52:51.394Z,51.00
2018-12-13T07:55:27.641Z,53.47
2018-12-13T07:58:03.821Z,52.17
2018-12-13T08:00:39.852Z,49.30
2018-12-13T08:03:16.201Z,52.73
2018-12-13T08:05:52.382Z,51.03
2018-12-13T08:08:28.641Z,52.30
2018-12-13T08:11:04.678Z,51.47
2018-12-13T08:13:40.620Z,52.13
2018-12-13T08:16:16.617Z,53.00
2018-12-13T08:18:48.992Z,53.33
2018-12-13T08:21:25.124Z,54.50
2018-12-13T08:24:01.357Z,52.70
2018-12-13T08:26:33.573Z,52.37
2018-12-13T08:29:09.629Z,54.57
2018-12-13T08:31:42.605Z,52.77
2018-12-13T08:34:15.057Z,54.63
2018-12-13T08:36:50.956Z,54.43
2018-12-13T08:39:26.972Z,54.10
2018-12-13T08:42:03.053Z,50.40
2018-12-13T08:44:35.329Z,53.00
2018-12-13T08:47:11.296Z,51.97
2018-12-13T08:49:47.573Z,51.50
2018-12-13T08:52:23.361Z,50.70
2018-12-13T08:54:59.496Z,52.70
2018-12-13T08:57:35.648Z,53.80
2018-12-13T09:00:12.059Z,53.50
2018-12-13T09:02:48.161Z,52.47
2018-12-13T09:05:24.407Z,51.87
2018-12-13T09:08:00.516Z,52.10
2018-12-13T09:10:36.676Z,51.57
2018-12-13T09:13:12.804Z,53.43
2018-12-13T09:15:49.063Z,52.33
2018-12-13T09:18:25.214Z,50.00
2018-12-13T09:21:01.221Z,52.17
2018-12-13T09:23:37.336Z,52.03
2018-12-13T09:26:13.568Z,50.93
2018-12-13T09:28:49.592Z,50.67
2018-12-13T09:31:25.554Z,49.00
2018-12-13T09:34:01.432Z,51.00
2018-12-13T09:36:33.965Z,53.37
2018-12-13T09:39:09.989Z,50.17
2018-12-13T09:44:19.060Z,50.00
2018-12-13T09:46:51.493Z,48.93
2018-12-13T09:52:02.681Z,46.33
2018-12-13T09:54:38.856Z,47.20
2018-12-13T09:57:11.076Z,48.40
2018-12-13T09:59:47.193Z,46.93
2018-12-13T10:02:23.272Z,46.70
2018-12-13T10:04:55.585Z,48.37
2018-12-13T10:07:31.636Z,46.83
2018-12-13T10:10:04.885Z,46.37
2018-12-13T10:12:40.893Z,49.63
2018-12-13T10:15:16.915Z,45.70
2018-12-13T10:17:53.008Z,47.40
2018-12-13T10:20:29.031Z,41.30
2018-12-13T10:23:01.355Z,45.40
2018-12-13T10:25:33.597Z,46.87
2018-12-13T10:28:09.709Z,37.23
2018-12-13T10:30:42.025Z,37.77
2018-12-13T10:33:18.017Z,42.43
2018-12-13T10:35:54.184Z,40.40
2018-12-13T10:38:30.318Z,39.60
2018-12-13T10:41:02.614Z,38.07
2018-12-13T10:43:38.712Z,40.57
2018-12-13T10:46:14.618Z,35.33
2018-12-13T10:48:50.574Z,35.87
2018-12-13T10:51:26.825Z,34.33
2018-12-13T10:56:32.768Z,32.53
2018-12-13T10:59:08.865Z,32.23
2018-12-13T11:01:41.384Z,32.47
2018-12-13T11:04:17.294Z,34.40
2018-12-13T11:06:49.640Z,32.93
2018-12-13T11:09:25.840Z,32.90
2018-12-13T11:11:58.103Z,33.97
2018-12-13T11:14:34.095Z,33.13
2018-12-13T11:17:10.025Z,35.73
2018-12-13T11:19:46.286Z,34.40
2018-12-13T11:22:22.672Z,34.47
2018-12-13T11:24:58.823Z,33.33
2018-12-13T11:27:42.240Z,33.97
2018-12-13T11:30:25.737Z,34.53
2018-12-13T11:32:58.184Z,34.50
2018-12-13T11:35:34.261Z,32.40
2018-12-13T11:38:10.341Z,34.00
2018-12-13T11:40:42.634Z,33.67
2018-12-13T11:43:14.865Z,32.30
2018-12-13T11:45:50.964Z,33.43
2018-12-13T11:48:27.165Z,33.97
2018-12-13T11:50:59.461Z,32.07
2018-12-13T11:53:35.488Z,33.40
2018-12-13T11:56:11.394Z,35.43
2018-12-13T12:14:07.953Z,36.87
2018-12-13T12:16:40.297Z,34.80
2018-12-13T12:19:12.756Z,36.27
2018-12-13T12:21:49.001Z,35.13
2018-12-13T12:24:25.045Z,35.63
2018-12-13T12:27:01.244Z,36.23
2018-12-13T12:29:37.278Z,34.43
2018-12-13T12:32:13.376Z,35.87
2018-12-13T12:34:49.628Z,35.77
2018-12-13T12:37:25.731Z,32.57
2018-12-13T12:39:58.029Z,32.57
2018-12-13T12:42:34.055Z,32.70
2018-12-13T12:45:10.078Z,34.60
2018-12-13T12:47:46.232Z,32.80
2018-12-13T12:50:18.647Z,34.70
2018-12-13T12:52:54.736Z,36.77
2018-12-13T12:55:30.830Z,35.03
2018-12-13T12:58:06.891Z,32.13
2018-12-13T13:00:42.889Z,34.13
2018-12-13T13:03:19.020Z,32.00
2018-12-13T13:05:55.259Z,32.87
2018-12-13T13:08:31.130Z,35.77
2018-12-13T13:11:07.058Z,31.73
2018-12-13T13:13:43.004Z,31.13
2018-12-13T13:16:19.236Z,31.43
2018-12-13T13:18:55.366Z,32.23
2018-12-13T13:36:51.868Z,29.70
2018-12-13T13:39:24.185Z,27.90
2018-12-13T13:42:00.300Z,27.73
2018-12-13T13:44:36.753Z,27.60
2018-12-13T13:47:12.574Z,31.80
2018-12-13T13:49:48.508Z,30.03
2018-12-13T13:52:24.716Z,31.33
2018-12-13T13:55:00.591Z,30.80
2018-12-13T13:57:36.724Z,31.20
2018-12-13T14:00:12.980Z,31.07
2018-12-13T14:02:49.053Z,33.07
2018-12-13T14:05:25.185Z,35.23
2018-12-13T14:08:01.154Z,28.43
2018-12-13T14:10:37.380Z,28.30
2018-12-13T14:13:13.528Z,32.33
2018-12-13T14:15:49.665Z,30.23
2018-12-13T14:18:21.903Z,33.03
2018-12-13T14:20:58.108Z,33.17
2018-12-13T14:23:30.504Z,30.43
2018-12-13T14:26:07.359Z,31.77
2018-12-13T14:28:39.940Z,34.17
2018-12-13T14:31:16.015Z,33.30
2018-12-13T14:33:51.972Z,33.97
2018-12-13T14:36:28.090Z,30.53
2018-12-13T14:39:06.901Z,33.13
2018-12-13T14:41:39.205Z,33.97
2018-12-13T14:44:15.550Z,30.77
2018-12-13T14:46:52.445Z,30.70
2018-12-13T14:49:28.569Z,33.23
2018-12-13T14:52:04.669Z,31.97
2018-12-13T14:54:41.021Z,32.50
2018-12-13T14:57:17.040Z,31.60
2018-12-13T14:59:53.205Z,29.90
2018-12-13T15:02:29.251Z,32.17
2018-12-13T15:05:06.107Z,32.33
2018-12-13T15:07:38.545Z,28.50
2018-12-13T15:10:14.692Z,32.00
2018-12-13T15:12:50.673Z,28.87
2018-12-13T15:15:27.029Z,31.23
2018-12-13T15:18:03.030Z,29.07
2018-12-13T15:20:39.091Z,29.63
2018-12-13T15:23:15.942Z,30.20
2018-12-13T15:25:48.421Z,30.27
2018-12-13T15:28:24.511Z,31.00
2018-12-13T15:31:00.568Z,29.10
2018-12-13T15:33:36.552Z,32.20
2018-12-13T15:36:12.903Z,29.60
2018-12-13T15:38:48.708Z,28.53
2018-12-13T15:41:24.757Z,30.77
2018-12-13T15:43:57.173Z,29.17
2018-12-13T15:46:33.116Z,33.17
2018-12-13T16:09:36.010Z,29.27
2018-12-13T16:14:47.217Z,30.87
2018-12-13T16:17:23.161Z,33.67
2018-12-13T16:19:59.321Z,31.70
2018-12-13T16:22:35.344Z,30.77
2018-12-13T16:25:11.698Z,32.77
2018-12-13T16:27:44.111Z,30.80
2018-12-13T16:30:20.836Z,30.27
2018-12-13T16:32:56.677Z,29.67
2018-12-13T16:35:32.868Z,32.97
2018-12-13T16:38:05.166Z,31.77
2018-12-13T16:40:41.220Z,32.97
2018-12-13T16:43:17.328Z,32.00
2018-12-13T16:45:53.476Z,33.20
2018-12-13T16:48:29.684Z,34.10
2018-12-13T16:51:06.068Z,32.70
2018-12-13T16:53:41.986Z,33.00
2018-12-13T16:56:18.364Z,29.83
2018-12-13T16:58:54.184Z,32.07
2018-12-13T17:01:30.204Z,35.73
2018-12-13T17:04:06.030Z,34.50
2018-12-13T17:06:42.292Z,33.20
2018-12-13T17:09:18.666Z,35.17
2018-12-13T17:11:54.863Z,34.87
2018-12-13T17:14:31.024Z,32.90
2018-12-13T17:17:06.891Z,34.20
2018-12-13T17:19:39.492Z,31.40
2018-12-13T17:22:15.599Z,33.40
2018-12-13T17:24:51.877Z,31.03
2018-12-13T17:27:28.034Z,34.30
2018-12-13T17:30:04.675Z,32.73
2018-12-13T17:32:37.208Z,35.93
2018-12-13T17:35:13.393Z,33.63
2018-12-13T17:37:49.426Z,34.57
2018-12-13T17:40:25.410Z,35.00
2018-12-13T17:43:01.597Z,36.23
2018-12-13T17:45:34.112Z,35.50
2018-12-13T17:48:10.027Z,36.03
2018-12-13T17:50:45.905Z,37.43
2018-12-13T17:53:22.156Z,34.93
2018-12-13T17:55:58.180Z,34.47
2018-12-13T17:58:34.289Z,37.53
2018-12-13T18:01:10.231Z,37.57
2018-12-13T18:03:46.063Z,38.13
2018-12-13T18:06:22.639Z,37.57
2018-12-13T18:08:58.704Z,37.93
2018-12-13T18:11:34.761Z,38.17
2018-12-13T18:14:10.970Z,34.63
2018-12-13T18:16:47.057Z,36.33
2018-12-13T18:19:19.602Z,38.17
2018-12-13T18:21:55.758Z,34.07
2018-12-13T18:24:31.935Z,38.23
2018-12-13T18:27:08.231Z,37.17
2018-12-13T18:29:44.167Z,38.37
2018-12-13T18:32:20.128Z,40.57
2018-12-13T18:34:52.711Z,39.73
2018-12-13T18:37:28.826Z,40.20
2018-12-13T18:40:05.463Z,39.77
2018-12-13T18:42:41.376Z,37.90
2018-12-13T18:45:19.577Z,36.90
2018-12-13T18:47:52.304Z,35.73
2018-12-13T18:50:28.405Z,35.33
2018-12-13T18:53:04.609Z,36.83
2018-12-13T18:55:40.864Z,32.80
2018-12-13T18:58:17.419Z,34.73
2018-12-13T19:00:53.759Z,33.03
2018-12-13T19:03:29.875Z,33.60
2018-12-13T19:06:06.898Z,33.83
2018-12-13T19:08:42.934Z,34.70
2018-12-13T19:11:19.351Z,35.43
2018-12-13T19:13:51.857Z,33.97
2018-12-13T19:16:28.018Z,36.27
2018-12-13T19:19:04.068Z,37.03
2018-12-13T19:21:40.420Z,34.97
2018-12-13T19:24:17.196Z,32.83
2018-12-13T19:26:53.132Z,33.20
2018-12-13T19:29:29.139Z,35.00
2018-12-13T19:32:05.561Z,30.97
2018-12-13T19:34:41.451Z,35.23
2018-12-13T19:37:17.695Z,36.30
2018-12-13T19:39:54.005Z,31.37
2018-12-13T19:42:29.943Z,36.13
2018-12-13T19:45:06.289Z,37.07
2018-12-13T19:47:42.589Z,35.97
2018-12-13T19:50:18.529Z,35.00
2018-12-13T19:52:54.799Z,37.27
2018-12-13T19:55:27.255Z,39.50
2018-12-13T19:58:03.687Z,35.37
2018-12-13T20:00:40.752Z,40.57
2018-12-13T20:03:16.840Z,39.13
2018-12-13T20:05:49.208Z,38.40
2018-12-13T20:08:25.527Z,38.80
2018-12-13T20:11:01.443Z,38.63
2018-12-13T20:13:37.904Z,38.77
2018-12-13T20:16:14.075Z,34.97
2018-12-13T20:18:50.212Z,38.10
2018-12-13T20:21:26.280Z,37.83
2018-12-13T20:24:02.586Z,37.30
2018-12-13T20:47:21.762Z,37.57
2018-12-13T20:49:54.147Z,36.70
2018-12-13T21:05:14.753Z,37.07
2018-12-13T21:07:53.159Z,40.43
2018-12-13T21:10:28.906Z,39.87
2018-12-13T21:13:05.124Z,40.73
2018-12-13T21:15:41.229Z,41.63
2018-12-13T21:18:17.417Z,37.83
2018-12-13T21:20:53.485Z,38.77
2018-12-13T21:23:29.833Z,38.83
2018-12-13T21:26:05.712Z,40.23
2018-12-13T21:28:42.040Z,38.63
2018-12-13T21:31:18.129Z,39.57
2018-12-13T21:33:54.072Z,39.37
2018-12-13T21:36:30.475Z,42.03
2018-12-13T21:39:07.390Z,42.00
2018-12-13T21:41:39.678Z,41.00
2018-12-13T21:44:15.755Z,40.57
2018-12-13T21:46:48.036Z,41.93
2018-12-13T21:49:24.181Z,39.67
2018-12-13T21:52:00.996Z,41.57
2018-12-13T21:54:33.388Z,43.00
2018-12-13T21:57:10.152Z,43.67
2018-12-13T21:59:42.445Z,41.17
2018-12-13T22:02:18.594Z,40.13
2018-12-13T22:04:50.885Z,41.90
2018-12-13T22:07:27.052Z,42.63
2018-12-13T22:10:03.355Z,42.53
2018-12-13T22:12:35.620Z,43.47
2018-12-13T22:15:12.657Z,44.23
2018-12-13T22:17:44.901Z,42.57
2018-12-13T22:20:21.098Z,39.97
2018-12-13T22:22:57.373Z,40.83
2018-12-13T22:25:33.416Z,43.47
2018-12-13T22:28:09.689Z,41.60
2018-12-13T22:30:45.609Z,38.87
2018-12-13T22:33:21.667Z,44.83
2018-12-13T22:35:57.752Z,41.63
2018-12-13T22:38:30.001Z,40.50
2018-12-13T22:41:06.303Z,43.07
2018-12-13T22:43:42.153Z,42.37
2018-12-13T22:46:18.292Z,42.57
2018-12-13T22:48:54.399Z,45.40
2018-12-13T22:51:30.522Z,44.30
2018-12-13T22:54:06.846Z,44.03
2018-12-13T22:56:42.616Z,43.10
2018-12-13T22:59:18.797Z,42.40
2018-12-13T23:01:54.723Z,41.73
2018-12-13T23:04:30.877Z,43.13
2018-12-13T23:07:06.872Z,40.83
2018-12-13T23:09:42.968Z,40.17
2018-12-13T23:12:19.210Z,44.67
2018-12-13T23:14:55.200Z,42.10
2018-12-13T23:17:27.758Z,45.07
2018-12-13T23:20:04.741Z,40.80
2018-12-13T23:22:40.996Z,41.47
2018-12-13T23:25:16.888Z,42.60
2018-12-13T23:27:53.000Z,41.63
2018-12-13T23:30:29.080Z,40.23
2018-12-13T23:33:05.012Z,40.30
2018-12-13T23:35:37.369Z,44.03
2018-12-13T23:38:13.564Z,39.10
2018-12-13T23:40:49.841Z,40.03
2018-12-13T23:43:22.165Z,47.83
2018-12-13T23:45:58.319Z,42.97
2018-12-13T23:48:34.436Z,41.53
2018-12-13T23:51:10.720Z,38.43
2018-12-13T23:53:42.943Z,40.63
2018-12-13T23:56:15.268Z,39.90
2018-12-13T23:58:51.570Z,38.17
